createdAt,value
2023-04-18T00:00:02.732Z,8.32
2023-04-18T00:00:49.799Z,8.68
2023-04-18T00:01:38.640Z,8.70
2023-04-18T00:02:27.480Z,8.60
2023-04-18T00:03:16.204Z,8.80
2023-04-18T00:04:05.267Z,9.02
2023-04-18T00:04:52.742Z,8.10
2023-04-18T00:05:40.507Z,8.80
2023-04-18T00:06:30.321Z,8.38
2023-04-18T00:07:18.050Z,9.18
2023-04-18T00:08:05.720Z,8.32
2023-04-18T00:08:52.886Z,8.95
2023-04-18T00:09:40.064Z,9.43
2023-04-18T00:10:27.067Z,8.30
2023-04-18T00:11:14.245Z,8.73
2023-04-18T00:12:02.235Z,7.93
2023-04-18T00:12:49.341Z,8.90
2023-04-18T00:13:38.705Z,9.32
2023-04-18T00:14:25.913Z,9.20
2023-04-18T00:15:13.074Z,8.27
2023-04-18T00:16:00.149Z,8.15
2023-04-18T00:16:47.306Z,9.02
2023-04-18T00:17:35.814Z,9.05
2023-04-18T00:18:22.986Z,8.35
2023-04-18T00:19:10.815Z,8.85
2023-04-18T00:20:02.701Z,9.32
2023-04-18T00:20:49.755Z,8.18
2023-04-18T00:21:37.579Z,9.48
2023-04-18T00:22:25.747Z,9.48
2023-04-18T00:23:14.292Z,9.02
2023-04-18T00:24:01.538Z,8.77
2023-04-18T00:24:52.325Z,8.63
2023-04-18T00:25:39.273Z,8.43
2023-04-18T00:26:27.396Z,9.07
2023-04-18T00:27:14.436Z,8.70
2023-04-18T00:28:01.726Z,8.93
2023-04-18T00:28:48.876Z,8.45
2023-04-18T00:29:36.292Z,8.77
2023-04-18T00:30:23.582Z,8.43
2023-04-18T00:31:10.836Z,9.00
2023-04-18T00:31:58.429Z,8.50
2023-04-18T00:32:45.534Z,9.18
2023-04-18T00:33:32.586Z,8.48
2023-04-18T00:34:19.627Z,9.40
2023-04-18T00:35:07.141Z,8.57
2023-04-18T00:35:54.493Z,8.55
2023-04-18T00:36:41.574Z,8.60
2023-04-18T00:37:29.568Z,8.40
2023-04-18T00:38:16.585Z,8.73
2023-04-18T00:39:03.922Z,8.05
2023-04-18T00:39:54.616Z,8.85
2023-04-18T00:40:42.284Z,8.73
2023-04-18T00:41:30.592Z,8.15
2023-04-18T00:42:17.655Z,8.25
2023-04-18T00:43:04.847Z,8.35
2023-04-18T00:43:51.922Z,8.60
2023-04-18T00:44:39.016Z,8.75
2023-04-18T00:45:26.227Z,8.00
2023-04-18T00:46:13.360Z,8.63
2023-04-18T00:47:00.838Z,8.27
2023-04-18T00:47:47.877Z,8.75
2023-04-18T00:48:35.106Z,9.30
2023-04-18T00:49:22.626Z,9.13
2023-04-18T00:50:10.825Z,8.07
2023-04-18T00:51:00.785Z,8.05
2023-04-18T00:51:47.869Z,8.02
2023-04-18T00:52:36.243Z,8.98
2023-04-18T00:53:23.543Z,8.25
2023-04-18T00:54:13.815Z,8.13
2023-04-18T00:55:01.037Z,8.68
2023-04-18T00:55:48.407Z,7.85
2023-04-18T00:56:36.543Z,7.82
2023-04-18T00:57:23.601Z,7.97
2023-04-18T00:58:10.886Z,8.43
2023-04-18T00:58:58.199Z,7.47
2023-04-18T00:59:46.948Z,7.65
2023-04-18T01:00:34.650Z,7.90
2023-04-18T01:01:21.706Z,8.02
2023-04-18T01:02:09.373Z,9.02
2023-04-18T01:02:56.639Z,7.78
2023-04-18T01:03:44.410Z,7.72
2023-04-18T01:04:35.016Z,8.20
2023-04-18T01:05:23.309Z,7.70
2023-04-18T01:06:10.493Z,7.60
2023-04-18T01:06:57.884Z,7.78
2023-04-18T01:07:45.798Z,8.05
2023-04-18T01:08:33.071Z,7.97
2023-04-18T01:09:20.477Z,7.68
2023-04-18T01:10:09.137Z,8.13
2023-04-18T01:10:56.256Z,7.18
2023-04-18T01:11:43.238Z,7.87
2023-04-18T01:12:30.825Z,8.13
2023-04-18T01:13:19.523Z,7.97
2023-04-18T01:14:08.025Z,7.90
2023-04-18T01:14:55.127Z,7.55
2023-04-18T01:15:43.282Z,7.53
2023-04-18T01:16:33.032Z,8.27
2023-04-18T01:17:20.165Z,8.07
2023-04-18T01:18:09.187Z,7.45
2023-04-18T01:18:57.299Z,7.70
2023-04-18T01:19:44.924Z,8.15
2023-04-18T01:20:32.047Z,7.57
2023-04-18T01:21:20.430Z,7.25
2023-04-18T01:22:07.875Z,7.37
2023-04-18T01:22:55.604Z,7.55
2023-04-18T01:23:42.917Z,7.75
2023-04-18T01:24:32.183Z,7.20
2023-04-18T01:25:19.363Z,6.93
2023-04-18T01:26:06.421Z,7.45
2023-04-18T01:26:53.462Z,7.30
2023-04-18T01:27:40.513Z,6.90
2023-04-18T01:28:28.182Z,7.40
2023-04-18T01:29:15.558Z,7.90
2023-04-18T01:30:02.704Z,7.43
2023-04-18T01:30:49.933Z,7.62
2023-04-18T01:31:38.252Z,8.05
2023-04-18T01:32:25.253Z,7.32
2023-04-18T01:33:12.324Z,7.25
2023-04-18T01:33:59.333Z,7.45
2023-04-18T01:34:46.421Z,7.57
2023-04-18T01:35:34.011Z,7.43
2023-04-18T01:36:21.047Z,7.57
2023-04-18T01:37:08.117Z,7.55
2023-04-18T01:37:55.435Z,6.97
2023-04-18T01:38:42.605Z,7.45
2023-04-18T01:39:29.718Z,7.90
2023-04-18T01:40:16.799Z,8.00
2023-04-18T01:41:03.991Z,7.90
2023-04-18T01:41:51.007Z,7.93
2023-04-18T01:42:38.234Z,7.87
2023-04-18T01:43:25.222Z,7.60
2023-04-18T01:44:12.537Z,7.87
2023-04-18T01:44:59.814Z,7.68
2023-04-18T01:45:46.863Z,7.40
2023-04-18T01:46:34.548Z,7.47
2023-04-18T01:47:21.729Z,7.90
2023-04-18T01:48:09.221Z,7.87
2023-04-18T01:48:57.215Z,7.78
2023-04-18T01:49:48.353Z,7.53
2023-04-18T01:50:35.619Z,8.02
2023-04-18T01:51:22.822Z,7.93
2023-04-18T01:52:09.921Z,7.53
2023-04-18T01:52:56.938Z,8.18
2023-04-18T01:53:44.017Z,7.95
2023-04-18T01:54:31.126Z,7.97
2023-04-18T01:55:18.140Z,8.13
2023-04-18T01:56:05.474Z,8.65
2023-04-18T01:56:52.537Z,8.02
2023-04-18T01:57:39.547Z,8.52
2023-04-18T01:58:27.050Z,8.00
2023-04-18T01:59:14.223Z,7.68
2023-04-18T02:00:01.989Z,7.55
2023-04-18T02:00:52.914Z,7.60
2023-04-18T02:01:39.985Z,8.18
2023-04-18T02:02:27.141Z,7.65
2023-04-18T02:03:14.552Z,7.50
2023-04-18T02:04:01.916Z,7.70
2023-04-18T02:04:49.030Z,8.00
2023-04-18T02:05:37.721Z,7.65
2023-04-18T02:06:25.251Z,7.35
2023-04-18T02:07:12.306Z,7.62
2023-04-18T02:07:59.679Z,7.70
2023-04-18T02:08:46.716Z,8.02
2023-04-18T02:09:33.968Z,7.53
2023-04-18T02:10:21.476Z,7.70
2023-04-18T02:11:08.568Z,7.43
2023-04-18T02:11:56.586Z,7.85
2023-04-18T02:12:43.558Z,7.82
2023-04-18T02:13:30.678Z,8.05
2023-04-18T02:14:17.708Z,7.75
2023-04-18T02:15:05.086Z,8.32
2023-04-18T02:15:52.322Z,7.28
2023-04-18T02:16:39.540Z,8.85
2023-04-18T02:17:26.606Z,8.00
2023-04-18T02:18:13.663Z,7.55
2023-04-18T02:19:01.715Z,7.35
2023-04-18T02:19:48.858Z,7.90
2023-04-18T02:20:36.625Z,7.62
2023-04-18T02:21:24.730Z,7.60
2023-04-18T02:22:11.714Z,7.32
2023-04-18T02:22:59.510Z,7.90
2023-04-18T02:23:46.592Z,8.18
2023-04-18T02:24:33.777Z,7.53
2023-04-18T02:25:23.929Z,7.80
2023-04-18T02:26:11.082Z,7.93
2023-04-18T02:26:58.708Z,7.45
2023-04-18T02:27:47.121Z,7.40
2023-04-18T02:28:34.560Z,7.20
2023-04-18T02:29:21.642Z,7.47
2023-04-18T02:30:11.060Z,7.70
2023-04-18T02:31:00.264Z,7.70
2023-04-18T02:31:47.328Z,7.50
2023-04-18T02:32:34.667Z,7.95
2023-04-18T02:33:21.988Z,7.78
2023-04-18T02:34:09.417Z,7.87
2023-04-18T02:34:56.597Z,7.30
2023-04-18T02:35:43.579Z,7.97
2023-04-18T02:36:31.278Z,7.80
2023-04-18T02:37:18.291Z,7.47
2023-04-18T02:38:05.313Z,7.78
2023-04-18T02:38:52.444Z,7.70
2023-04-18T02:39:39.469Z,7.40
2023-04-18T02:40:26.406Z,7.40
2023-04-18T02:41:15.486Z,7.87
2023-04-18T02:42:02.446Z,7.87
2023-04-18T02:42:49.497Z,7.40
2023-04-18T02:43:36.470Z,8.02
2023-04-18T02:44:23.511Z,7.45
2023-04-18T02:45:11.039Z,7.50
2023-04-18T02:45:58.093Z,7.47
2023-04-18T02:46:45.129Z,7.47
2023-04-18T02:47:40.467Z,7.75
2023-04-18T02:48:34.389Z,7.50
2023-04-18T02:49:21.406Z,7.80
2023-04-18T02:50:09.067Z,7.75
2023-04-18T02:51:05.185Z,7.35
2023-04-18T02:51:56.196Z,7.15
2023-04-18T02:52:44.096Z,7.37
2023-04-18T02:53:31.653Z,8.13
2023-04-18T02:54:18.906Z,7.57
2023-04-18T02:55:06.540Z,7.20
2023-04-18T02:55:53.629Z,7.82
2023-04-18T02:56:40.657Z,7.45
2023-04-18T02:57:27.527Z,7.62
2023-04-18T02:58:14.582Z,7.70
2023-04-18T02:59:01.526Z,7.28
2023-04-18T02:59:48.695Z,7.53
2023-04-18T03:00:36.356Z,7.22
2023-04-18T03:01:23.479Z,6.65
2023-04-18T03:02:10.777Z,7.97
2023-04-18T03:02:58.017Z,7.28
2023-04-18T03:03:45.247Z,7.05
2023-04-18T03:04:32.430Z,8.10
2023-04-18T03:05:20.239Z,7.47
2023-04-18T03:06:07.615Z,7.45
2023-04-18T03:06:56.290Z,7.18
2023-04-18T03:07:43.488Z,7.35
2023-04-18T03:08:30.692Z,7.20
2023-04-18T03:09:17.745Z,6.93
2023-04-18T03:10:05.131Z,7.60
2023-04-18T03:10:52.264Z,6.90
2023-04-18T03:11:39.505Z,7.60
2023-04-18T03:12:26.580Z,7.95
2023-04-18T03:13:13.623Z,7.20
2023-04-18T03:14:00.816Z,7.28
2023-04-18T03:14:47.946Z,6.85
2023-04-18T03:15:35.167Z,7.15
2023-04-18T03:16:22.565Z,7.32
2023-04-18T03:17:09.784Z,7.45
2023-04-18T03:17:57.080Z,7.15
2023-04-18T03:18:44.517Z,7.50
2023-04-18T03:19:32.396Z,6.70
2023-04-18T03:20:19.600Z,7.62
2023-04-18T03:21:07.586Z,7.68
2023-04-18T03:21:54.782Z,7.30
2023-04-18T03:22:41.864Z,7.43
2023-04-18T03:23:28.907Z,7.68
2023-04-18T03:24:16.251Z,7.12
2023-04-18T03:25:03.858Z,7.37
2023-04-18T03:25:50.885Z,8.02
2023-04-18T03:26:37.857Z,7.95
2023-04-18T03:27:24.930Z,7.40
2023-04-18T03:28:11.939Z,7.28
2023-04-18T03:28:59.003Z,7.37
2023-04-18T03:29:46.095Z,7.62
2023-04-18T03:30:33.201Z,7.20
2023-04-18T03:31:20.555Z,7.93
2023-04-18T03:32:07.954Z,7.32
2023-04-18T03:32:56.426Z,7.28
2023-04-18T03:33:44.503Z,7.25
2023-04-18T03:34:31.536Z,7.80
2023-04-18T03:35:19.077Z,7.18
2023-04-18T03:36:06.499Z,7.37
2023-04-18T03:36:54.416Z,7.18
2023-04-18T03:37:41.475Z,7.68
2023-04-18T03:38:28.545Z,8.23
2023-04-18T03:39:15.663Z,7.75
2023-04-18T03:40:02.685Z,7.07
2023-04-18T03:40:49.704Z,7.00
2023-04-18T03:41:36.846Z,7.75
2023-04-18T03:42:24.105Z,7.40
2023-04-18T03:43:11.779Z,7.40
2023-04-18T03:43:59.030Z,8.02
2023-04-18T03:44:45.964Z,6.85
2023-04-18T03:45:33.071Z,7.20
2023-04-18T03:46:22.221Z,8.02
2023-04-18T03:47:09.285Z,7.40
2023-04-18T03:47:56.754Z,7.50
2023-04-18T03:48:43.729Z,7.47
2023-04-18T03:49:31.033Z,7.62
2023-04-18T03:50:18.117Z,7.85
2023-04-18T03:51:06.352Z,7.72
2023-04-18T03:51:53.430Z,7.18
2023-04-18T03:52:40.444Z,7.75
2023-04-18T03:53:27.484Z,7.40
2023-04-18T03:54:15.819Z,7.22
2023-04-18T03:55:03.107Z,7.70
2023-04-18T03:55:50.809Z,7.37
2023-04-18T03:56:38.574Z,7.75
2023-04-18T03:57:26.699Z,7.30
2023-04-18T03:58:14.112Z,7.65
2023-04-18T03:59:01.264Z,7.47
2023-04-18T03:59:48.348Z,7.60
2023-04-18T04:00:35.725Z,7.75
2023-04-18T04:01:22.746Z,7.75
2023-04-18T04:02:09.988Z,7.50
2023-04-18T04:02:57.354Z,8.30
2023-04-18T04:03:44.728Z,7.78
2023-04-18T04:04:31.845Z,7.87
2023-04-18T04:05:19.028Z,7.78
2023-04-18T04:06:06.852Z,7.80
2023-04-18T04:06:53.941Z,7.57
2023-04-18T04:07:40.929Z,8.23
2023-04-18T04:08:28.379Z,7.70
2023-04-18T04:09:15.536Z,7.40
2023-04-18T04:10:02.561Z,7.50
2023-04-18T04:10:49.566Z,8.15
2023-04-18T04:11:36.783Z,7.53
2023-04-18T04:12:24.299Z,7.72
2023-04-18T04:13:11.573Z,7.68
2023-04-18T04:13:58.650Z,7.80
2023-04-18T04:14:45.640Z,8.20
2023-04-18T04:15:32.919Z,7.10
2023-04-18T04:16:19.908Z,7.45
2023-04-18T04:17:07.305Z,7.70
2023-04-18T04:17:54.586Z,7.30
2023-04-18T04:18:41.639Z,7.47
2023-04-18T04:19:28.633Z,7.50
2023-04-18T04:20:15.951Z,7.03
2023-04-18T04:21:04.202Z,7.62
2023-04-18T04:21:51.415Z,7.62
2023-04-18T04:22:38.440Z,7.60
2023-04-18T04:23:28.768Z,7.85
2023-04-18T04:24:16.590Z,7.28
2023-04-18T04:25:05.360Z,7.65
2023-04-18T04:25:53.307Z,7.30
2023-04-18T04:26:40.562Z,7.90
2023-04-18T04:27:27.569Z,7.60
2023-04-18T04:28:14.697Z,7.45
2023-04-18T04:29:03.718Z,7.15
2023-04-18T04:29:52.468Z,7.20
2023-04-18T04:30:41.922Z,7.37
2023-04-18T04:31:29.145Z,7.30
2023-04-18T04:32:17.175Z,7.22
2023-04-18T04:33:04.297Z,7.70
2023-04-18T04:33:51.495Z,7.43
2023-04-18T04:34:38.601Z,7.12
2023-04-18T04:35:26.941Z,7.75
2023-04-18T04:36:18.859Z,7.20
2023-04-18T04:37:06.461Z,7.22
2023-04-18T04:37:53.708Z,7.28
2023-04-18T04:38:41.858Z,7.70
2023-04-18T04:39:29.277Z,7.75
2023-04-18T04:40:16.408Z,7.43
2023-04-18T04:41:04.021Z,6.85
2023-04-18T04:41:53.827Z,8.00
2023-04-18T04:42:41.491Z,8.05
2023-04-18T04:43:28.983Z,7.93
2023-04-18T04:44:19.316Z,7.47
2023-04-18T04:45:08.834Z,7.30
2023-04-18T04:45:56.107Z,7.25
2023-04-18T04:46:45.030Z,7.00
2023-04-18T04:47:32.195Z,7.93
2023-04-18T04:48:20.262Z,7.57
2023-04-18T04:49:07.887Z,7.97
2023-04-18T04:49:55.109Z,7.55
2023-04-18T04:50:42.558Z,7.28
2023-04-18T04:51:29.583Z,7.78
2023-04-18T04:52:16.748Z,8.63
2023-04-18T04:53:04.120Z,7.55
2023-04-18T04:53:51.255Z,7.75
2023-04-18T04:54:38.224Z,7.72
2023-04-18T04:55:25.185Z,6.97
2023-04-18T04:56:12.821Z,7.43
2023-04-18T04:56:59.995Z,7.93
2023-04-18T04:57:47.994Z,7.40
2023-04-18T04:58:35.048Z,7.57
2023-04-18T04:59:22.128Z,7.18
2023-04-18T05:00:09.692Z,7.70
2023-04-18T05:00:58.264Z,7.97
2023-04-18T05:02:04.322Z,7.47
2023-04-18T05:02:55.229Z,7.72
2023-04-18T05:03:43.094Z,7.85
2023-04-18T05:04:30.625Z,7.95
2023-04-18T05:05:17.726Z,7.87
2023-04-18T05:06:04.958Z,8.00
2023-04-18T05:06:52.028Z,8.52
2023-04-18T05:07:39.099Z,7.82
2023-04-18T05:08:26.517Z,7.85
2023-04-18T05:09:14.044Z,7.25
2023-04-18T05:10:01.083Z,7.30
2023-04-18T05:10:50.027Z,7.75
2023-04-18T05:11:37.007Z,7.75
2023-04-18T05:12:23.985Z,7.10
2023-04-18T05:13:10.924Z,7.40
2023-04-18T05:13:58.218Z,7.80
2023-04-18T05:14:45.228Z,7.45
2023-04-18T05:15:32.614Z,7.90
2023-04-18T05:16:19.684Z,7.65
2023-04-18T05:17:08.086Z,7.37
2023-04-18T05:17:55.174Z,7.87
2023-04-18T05:18:42.527Z,7.80
2023-04-18T05:19:29.503Z,7.97
2023-04-18T05:20:16.605Z,7.85
2023-04-18T05:21:03.805Z,7.70
2023-04-18T05:21:51.393Z,7.85
2023-04-18T05:22:38.529Z,7.87
2023-04-18T05:23:25.533Z,6.97
2023-04-18T05:24:12.871Z,7.30
2023-04-18T05:25:00.004Z,7.68
2023-04-18T05:25:46.987Z,7.78
2023-04-18T05:26:34.099Z,6.85
2023-04-18T05:27:21.875Z,7.65
2023-04-18T05:28:09.234Z,7.90
2023-04-18T05:28:56.339Z,7.75
2023-04-18T05:29:43.515Z,7.65
2023-04-18T05:30:31.185Z,7.72
2023-04-18T05:31:18.579Z,7.07
2023-04-18T05:32:14.573Z,7.07
2023-04-18T05:33:01.801Z,7.40
2023-04-18T05:33:48.915Z,7.43
2023-04-18T05:34:38.745Z,7.45
2023-04-18T05:35:26.714Z,7.28
2023-04-18T05:36:13.850Z,8.07
2023-04-18T05:37:01.126Z,7.18
2023-04-18T05:37:53.832Z,7.53
2023-04-18T05:38:41.214Z,7.40
2023-04-18T05:39:28.334Z,7.43
2023-04-18T05:40:15.608Z,7.72
2023-04-18T05:41:03.476Z,7.62
2023-04-18T05:41:50.887Z,8.00
2023-04-18T05:42:38.121Z,7.78
2023-04-18T05:43:25.343Z,7.97
2023-04-18T05:44:12.701Z,8.48
2023-04-18T05:45:02.217Z,8.00
2023-04-18T05:45:49.155Z,7.70
2023-04-18T05:46:36.280Z,8.10
2023-04-18T05:47:27.066Z,7.62
2023-04-18T05:48:14.389Z,7.70
2023-04-18T05:49:02.464Z,7.75
2023-04-18T05:49:49.462Z,8.02
2023-04-18T05:50:36.638Z,7.57
2023-04-18T05:51:23.802Z,8.13
2023-04-18T05:52:11.598Z,8.90
2023-04-18T05:52:59.663Z,8.32
2023-04-18T05:53:46.775Z,7.82
2023-04-18T05:54:33.820Z,7.90
2023-04-18T05:55:20.956Z,8.35
2023-04-18T05:56:08.076Z,8.60
2023-04-18T05:56:55.527Z,7.68
2023-04-18T05:57:42.709Z,8.55
2023-04-18T05:58:29.857Z,8.38
2023-04-18T05:59:16.891Z,8.15
2023-04-18T06:00:07.185Z,8.73
2023-04-18T06:00:54.446Z,8.23
2023-04-18T06:01:41.493Z,8.68
2023-04-18T06:02:28.845Z,7.60
2023-04-18T06:03:16.229Z,8.02
2023-04-18T06:04:03.731Z,7.68
2023-04-18T06:04:52.409Z,7.72
2023-04-18T06:05:41.283Z,7.60
2023-04-18T06:06:28.893Z,7.93
2023-04-18T06:07:16.186Z,7.72
2023-04-18T06:08:03.819Z,7.80
2023-04-18T06:08:50.929Z,8.82
2023-04-18T06:09:38.189Z,8.00
2023-04-18T06:10:25.442Z,7.57
2023-04-18T06:11:12.958Z,8.02
2023-04-18T06:12:00.177Z,7.95
2023-04-18T06:12:47.240Z,8.60
2023-04-18T06:13:34.989Z,7.82
2023-04-18T06:14:23.697Z,7.55
2023-04-18T06:15:11.876Z,7.62
2023-04-18T06:15:58.955Z,7.47
2023-04-18T06:16:46.171Z,8.27
2023-04-18T06:17:34.652Z,8.18
2023-04-18T06:18:21.812Z,7.75
2023-04-18T06:19:09.081Z,8.30
2023-04-18T06:19:56.228Z,7.80
2023-04-18T06:20:45.585Z,7.87
2023-04-18T06:21:32.998Z,8.00
2023-04-18T06:22:20.038Z,7.12
2023-04-18T06:23:08.480Z,7.90
2023-04-18T06:23:55.579Z,7.45
2023-04-18T06:24:43.883Z,7.18
2023-04-18T06:25:32.080Z,7.62
2023-04-18T06:26:19.095Z,7.65
2023-04-18T06:27:14.939Z,8.00
2023-04-18T06:28:07.870Z,8.02
2023-04-18T06:28:54.961Z,7.62
2023-04-18T06:29:43.587Z,7.87
2023-04-18T06:30:30.735Z,7.55
2023-04-18T06:31:17.900Z,7.60
2023-04-18T06:32:05.675Z,7.90
2023-04-18T06:32:52.816Z,7.60
2023-04-18T06:33:39.883Z,7.80
2023-04-18T06:34:26.815Z,7.72
2023-04-18T06:35:13.927Z,7.60
2023-04-18T06:36:00.980Z,7.65
2023-04-18T06:36:48.322Z,7.97
2023-04-18T06:37:35.523Z,7.20
2023-04-18T06:38:22.700Z,7.57
2023-04-18T06:39:09.824Z,8.38
2023-04-18T06:39:56.853Z,7.80
2023-04-18T06:40:44.091Z,7.68
2023-04-18T06:41:32.699Z,7.55
2023-04-18T06:42:22.867Z,7.87
2023-04-18T06:43:10.777Z,7.30
2023-04-18T06:44:02.882Z,7.87
2023-04-18T06:44:51.363Z,7.22
2023-04-18T06:45:39.264Z,8.05
2023-04-18T06:46:26.676Z,7.47
2023-04-18T06:47:16.471Z,7.72
2023-04-18T06:48:04.802Z,7.62
2023-04-18T06:48:52.020Z,7.82
2023-04-18T06:49:38.968Z,7.32
2023-04-18T06:50:27.169Z,7.60
2023-04-18T06:51:14.363Z,7.25
2023-04-18T06:52:01.364Z,7.45
2023-04-18T06:52:50.057Z,7.37
2023-04-18T06:53:37.534Z,7.20
2023-04-18T06:54:24.911Z,7.93
2023-04-18T06:55:13.257Z,6.95
2023-04-18T06:56:00.539Z,7.37
2023-04-18T06:56:47.686Z,6.80
2023-04-18T06:57:34.786Z,7.35
2023-04-18T06:58:21.922Z,6.87
2023-04-18T06:59:09.316Z,7.00
2023-04-18T06:59:56.336Z,7.45
2023-04-18T07:00:43.905Z,7.05
2023-04-18T07:01:34.355Z,7.18
2023-04-18T07:03:16.016Z,7.20
2023-04-18T07:04:14.628Z,6.82
2023-04-18T07:05:01.998Z,6.82
2023-04-18T07:05:50.644Z,7.32
2023-04-18T07:06:37.804Z,7.20
2023-04-18T07:07:24.787Z,7.45
2023-04-18T07:08:11.830Z,7.65
2023-04-18T07:09:01.534Z,7.47
2023-04-18T07:09:49.658Z,7.43
2023-04-18T07:10:36.645Z,7.68
2023-04-18T07:11:24.118Z,7.53
2023-04-18T07:12:11.280Z,7.05
2023-04-18T07:12:58.378Z,7.57
2023-04-18T07:13:47.505Z,7.22
2023-04-18T07:14:34.576Z,7.50
2023-04-18T07:15:21.783Z,8.00
2023-04-18T07:16:10.085Z,7.60
2023-04-18T07:16:58.091Z,7.12
2023-04-18T07:17:45.102Z,7.47
2023-04-18T07:18:37.945Z,7.57
2023-04-18T07:19:25.552Z,8.15
2023-04-18T07:20:14.252Z,7.70
2023-04-18T07:21:02.201Z,7.28
2023-04-18T07:21:49.206Z,7.78
2023-04-18T07:22:36.080Z,7.20
2023-04-18T07:23:23.130Z,7.53
2023-04-18T07:24:10.695Z,6.90
2023-04-18T07:24:57.703Z,7.32
2023-04-18T07:25:45.475Z,7.85
2023-04-18T07:26:32.733Z,7.55
2023-04-18T07:27:19.647Z,7.25
2023-04-18T07:28:06.791Z,7.45
2023-04-18T07:28:53.807Z,7.40
2023-04-18T07:29:40.847Z,7.55
2023-04-18T07:30:27.991Z,7.80
2023-04-18T07:31:16.873Z,7.22
2023-04-18T07:32:05.176Z,7.37
2023-04-18T07:32:53.715Z,6.75
2023-04-18T07:33:40.930Z,7.00
2023-04-18T07:34:30.104Z,7.53
2023-04-18T07:35:17.315Z,7.75
2023-04-18T07:36:04.454Z,7.12
2023-04-18T07:36:51.832Z,7.12
2023-04-18T07:37:38.997Z,7.55
2023-04-18T07:38:26.041Z,7.30
2023-04-18T07:39:13.109Z,7.57
2023-04-18T07:40:00.251Z,7.10
2023-04-18T07:40:47.414Z,7.30
2023-04-18T07:41:35.290Z,7.15
2023-04-18T07:42:22.310Z,7.28
2023-04-18T07:43:09.471Z,6.97
2023-04-18T07:43:56.379Z,7.20
2023-04-18T07:44:43.875Z,7.25
2023-04-18T07:45:31.258Z,7.28
2023-04-18T07:46:18.332Z,7.50
2023-04-18T07:47:11.897Z,7.90
2023-04-18T07:47:58.984Z,9.23
2023-04-18T07:48:46.539Z,7.50
2023-04-18T07:49:33.668Z,7.47
2023-04-18T07:50:20.624Z,7.78
2023-04-18T07:51:07.908Z,7.95
2023-04-18T07:51:56.710Z,8.00
2023-04-18T07:52:43.778Z,7.47
2023-04-18T07:53:30.819Z,7.62
2023-04-18T07:54:17.840Z,7.85
2023-04-18T07:55:05.332Z,7.47
2023-04-18T07:55:52.267Z,7.60
2023-04-18T07:56:39.239Z,7.62
2023-04-18T07:57:26.287Z,7.10
2023-04-18T07:58:13.806Z,7.45
2023-04-18T07:59:01.959Z,7.78
2023-04-18T07:59:49.067Z,7.70
2023-04-18T08:00:39.579Z,7.90
2023-04-18T08:02:14.589Z,7.57
2023-04-18T08:03:02.248Z,7.43
2023-04-18T08:03:49.631Z,7.70
2023-04-18T08:04:36.922Z,7.90
2023-04-18T08:05:24.119Z,8.20
2023-04-18T08:06:11.329Z,7.55
2023-04-18T08:06:58.304Z,7.57
2023-04-18T08:07:45.298Z,8.88
2023-04-18T08:08:32.358Z,7.53
2023-04-18T08:09:20.787Z,7.50
2023-04-18T08:10:08.919Z,7.95
2023-04-18T08:10:56.222Z,7.93
2023-04-18T08:11:43.458Z,8.40
2023-04-18T08:12:31.600Z,8.02
2023-04-18T08:13:18.572Z,7.78
2023-04-18T08:14:05.465Z,8.20
2023-04-18T08:14:52.490Z,8.00
2023-04-18T08:15:40.687Z,7.97
2023-04-18T08:16:29.442Z,7.72
2023-04-18T08:17:16.683Z,7.30
2023-04-18T08:18:03.972Z,7.72
2023-04-18T08:18:51.299Z,7.62
2023-04-18T08:19:38.467Z,8.00
2023-04-18T08:20:25.742Z,7.93
2023-04-18T08:21:13.221Z,7.75
2023-04-18T08:22:18.179Z,7.82
2023-04-18T08:23:08.727Z,8.52
2023-04-18T08:23:57.836Z,8.10
2023-04-18T08:25:01.171Z,7.45
2023-04-18T08:25:51.246Z,9.02
2023-04-18T08:26:38.351Z,8.10
2023-04-18T08:27:25.385Z,8.18
2023-04-18T08:28:13.737Z,9.73
2023-04-18T08:29:00.859Z,8.13
2023-04-18T08:29:47.900Z,8.15
2023-04-18T08:30:35.000Z,8.30
2023-04-18T08:31:22.383Z,8.63
2023-04-18T08:32:09.548Z,8.27
2023-04-18T08:32:56.717Z,7.75
2023-04-18T08:33:43.869Z,8.23
2023-04-18T08:34:33.915Z,8.00
2023-04-18T08:35:21.098Z,7.97
2023-04-18T08:36:08.618Z,7.85
2023-04-18T08:36:55.778Z,8.50
2023-04-18T08:37:43.506Z,8.02
2023-04-18T08:38:30.978Z,8.27
2023-04-18T08:39:18.008Z,8.00
2023-04-18T08:40:07.855Z,8.68
2023-04-18T08:40:54.836Z,8.57
2023-04-18T08:41:44.510Z,7.95
2023-04-18T08:42:31.638Z,7.60
2023-04-18T08:43:19.335Z,7.87
2023-04-18T08:44:07.871Z,7.55
2023-04-18T08:44:54.808Z,8.00
2023-04-18T08:45:44.862Z,8.07
2023-04-18T08:46:36.693Z,8.55
2023-04-18T08:47:24.097Z,8.68
2023-04-18T08:48:15.274Z,7.82
2023-04-18T08:49:06.443Z,7.40
2023-04-18T08:49:53.906Z,7.90
2023-04-18T08:50:44.918Z,7.78
2023-04-18T08:51:35.977Z,7.57
2023-04-18T08:52:23.655Z,8.32
2023-04-18T08:53:11.417Z,7.97
2023-04-18T08:54:02.972Z,7.70
2023-04-18T08:54:51.325Z,7.78
2023-04-18T08:55:38.327Z,7.45
2023-04-18T08:56:27.490Z,7.87
2023-04-18T08:57:26.962Z,7.60
2023-04-18T08:58:22.511Z,8.00
2023-04-18T08:59:09.874Z,7.93
2023-04-18T08:59:57.563Z,7.55
2023-04-18T09:00:50.704Z,7.75
2023-04-18T09:01:56.750Z,7.75
2023-04-18T09:02:45.196Z,7.87
2023-04-18T09:03:37.838Z,7.55
2023-04-18T09:04:37.131Z,7.62
2023-04-18T09:05:25.742Z,7.65
2023-04-18T09:06:19.498Z,7.25
2023-04-18T09:07:09.038Z,7.55
2023-04-18T09:07:57.068Z,7.85
2023-04-18T09:08:44.359Z,7.95
2023-04-18T09:09:58.604Z,8.00
2023-04-18T09:10:46.737Z,8.90
2023-04-18T09:11:34.737Z,8.52
2023-04-18T09:12:26.632Z,7.93
2023-04-18T09:13:13.740Z,7.95
2023-04-18T09:14:00.767Z,8.00
2023-04-18T09:14:48.750Z,8.32
2023-04-18T09:15:35.640Z,8.13
2023-04-18T09:16:23.539Z,8.48
2023-04-18T09:17:13.414Z,8.40
2023-04-18T09:18:03.112Z,8.48
2023-04-18T09:19:13.599Z,8.13
2023-04-18T09:20:02.185Z,7.65
2023-04-18T09:20:50.050Z,7.70
2023-04-18T09:21:40.537Z,7.85
2023-04-18T09:23:23.702Z,7.50
2023-04-18T09:24:28.666Z,7.85
2023-04-18T09:25:40.797Z,7.70
2023-04-18T09:26:36.457Z,7.55
2023-04-18T09:27:24.999Z,8.10
2023-04-18T09:28:29.287Z,8.15
2023-04-18T09:29:22.736Z,7.93
2023-04-18T09:30:10.702Z,7.82
2023-04-18T09:31:14.773Z,7.87
2023-04-18T09:32:02.303Z,7.93
2023-04-18T09:32:58.340Z,7.70
2023-04-18T09:33:54.719Z,7.78
2023-04-18T09:34:42.821Z,7.90
2023-04-18T09:35:30.050Z,7.85
2023-04-18T09:36:21.623Z,7.85
2023-04-18T09:37:14.202Z,8.55
2023-04-18T09:38:01.271Z,7.68
2023-04-18T09:38:49.917Z,8.45
2023-04-18T09:39:41.458Z,7.85
2023-04-18T09:40:28.580Z,7.78
2023-04-18T09:41:21.348Z,7.87
2023-04-18T09:42:10.739Z,7.53
2023-04-18T09:42:57.841Z,7.68
2023-04-18T09:43:46.010Z,7.53
2023-04-18T09:44:33.048Z,7.50
2023-04-18T09:45:20.813Z,7.70
2023-04-18T09:46:08.633Z,7.72
2023-04-18T09:46:56.031Z,7.68
2023-04-18T09:47:43.198Z,7.90
2023-04-18T09:48:30.595Z,7.55
2023-04-18T09:49:17.968Z,8.35
2023-04-18T09:50:06.858Z,7.97
2023-04-18T09:50:55.553Z,8.48
2023-04-18T09:51:44.673Z,9.13
2023-04-18T09:52:35.198Z,8.30
2023-04-18T09:54:11.711Z,8.50
2023-04-18T09:55:00.286Z,8.10
2023-04-18T09:55:53.980Z,7.93
2023-04-18T09:56:46.558Z,8.32
2023-04-18T09:57:34.800Z,8.25
2023-04-18T09:58:22.742Z,7.68
2023-04-18T09:59:10.363Z,8.95
2023-04-18T10:00:00.492Z,8.02
2023-04-18T10:00:47.541Z,7.87
2023-04-18T10:01:35.427Z,9.20
2023-04-18T10:02:23.478Z,8.15
2023-04-18T10:03:11.328Z,8.02
2023-04-18T10:04:01.896Z,8.75
2023-04-18T10:05:40.828Z,9.50
2023-04-18T10:06:29.233Z,8.80
2023-04-18T10:07:17.556Z,8.60
2023-04-18T10:08:04.948Z,8.85
2023-04-18T10:08:52.848Z,8.02
2023-04-18T10:09:44.892Z,8.07
2023-04-18T10:10:33.135Z,7.75
2023-04-18T10:11:20.377Z,8.52
2023-04-18T10:12:07.623Z,9.10
2023-04-18T10:12:57.494Z,8.57
2023-04-18T10:13:48.323Z,9.10
2023-04-18T10:14:36.603Z,9.63
2023-04-18T10:15:25.641Z,8.65
2023-04-18T10:16:13.178Z,8.50
2023-04-18T10:17:00.399Z,8.55
2023-04-18T10:18:06.180Z,9.13
2023-04-18T10:18:53.590Z,8.85
2023-04-18T10:19:44.629Z,9.07
2023-04-18T10:20:33.181Z,8.57
2023-04-18T10:21:21.708Z,8.75
2023-04-18T10:22:09.333Z,8.68
2023-04-18T10:22:57.939Z,8.77
2023-04-18T10:23:49.016Z,8.32
2023-04-18T10:24:56.398Z,8.48
2023-04-18T10:25:50.695Z,9.00
2023-04-18T10:26:47.624Z,8.73
2023-04-18T10:27:49.688Z,8.95
2023-04-18T10:28:57.462Z,9.48
2023-04-18T10:29:51.782Z,10.00
2023-04-18T10:30:41.379Z,9.75
2023-04-18T10:31:29.368Z,7.93
2023-04-18T10:32:18.471Z,8.65
2023-04-18T10:33:30.543Z,8.63
2023-04-18T10:34:19.892Z,8.20
2023-04-18T10:35:07.801Z,8.85
2023-04-18T10:36:00.954Z,8.30
2023-04-18T10:37:04.826Z,8.02
2023-04-18T10:37:53.338Z,8.38
2023-04-18T10:38:49.136Z,8.18
2023-04-18T10:39:57.727Z,8.00
2023-04-18T10:40:46.059Z,8.07
2023-04-18T10:41:34.527Z,8.18
2023-04-18T10:42:47.403Z,8.27
2023-04-18T10:44:09.805Z,8.10
2023-04-18T10:45:32.077Z,8.45
2023-04-18T10:46:30.970Z,8.55
2023-04-18T10:47:21.442Z,8.57
2023-04-18T10:48:30.449Z,9.02
2023-04-18T10:49:22.904Z,9.18
2023-04-18T10:50:12.136Z,8.32